Kezdőlap
METAR-TAF:

METAR-TAF

Repülőterek :

Braunschweig, Németország

földrajzi szélesség: 52-18N, földrajzi hosszúság: 010-27E, magasság: 81 m

Jelenlegi meteorológiai megfigyelések

A jelentés 54 perccel ezelõtt készült, 13:50 UTC
Északnyugati szél 6 kt, nyugati és északi között változik
Hőmérséklet 19°C
Páratartalom 60%
Légköri nyomás 1018 hPa
Látótávolság 10 km, vagy több
Kevés felhő 3000 lábon

METAR: EDVE 191350Z 32006KT 280V350 9999 FEW030 19/11 Q1018

Idő: 16:44 (14:44 UTC)

Előrejelzés

A jelentés 3 órával és 44 perccel ezelõtt készült, 11:00 UTC
Az előrejelzés 19-én 12 óra UTC és 19-én 21 óra UTC között érvényes
Északnyugati szél 7 kt
Látótávolság 10 km, vagy több
Szakadozott felhőzet 2000 lábon
19-én 19 óra UTC és 19-én 21 óra UTC között fokozatosan kialakuló
Különbözõ irányokból fújó szél 2 kt

TAF: EDVE 191100Z 1912/1921 32007KT 9999 BKN020 BECMG 1919/1921 VRB02KT

Meteorológiai megfigyelések és előrejelzések több, mint 4000 repülőtéren (METAR és TAF jelentéseket).

A térképen piros és sárga pontok jelzik az elérhető meteorológiai állomásokat.

Mozgassa az egeret a pont fölött, hogy megjelenjen az állomás neve.

Azután kattintson az időjárási megfigyelések és előrejelzések megtekintéséhez.

A térkép megváltoztatása: kattintson a fekete keresztel jelölt zöld gombra ráközelítéshez, a vonallal jelölt zöld gombra távolításhoz, vagy a zöld nyilakra a szomszédos térképek eléréséhez.


METAR-TAF: